Time;durP1;ratioP1;P1;durP2;ratioP2;P2;SDS_P1;SDS_P2;PMS_P1;PMS_P2;Temp;Humidity;BMP_temperature;BMP_pressure;BME280_temperature;BME280_humidity;BME280_pressure;Samples;Min_cycle;Max_cycle;Signal;HPM_P1;HPM_P2
2023/06/18 00:00:47;;;;;;;29.80;27.30;;;;;;;16.71;74.95;100144.05;219229;1245;61404;-74
2023/06/18 00:05:42;;;;;;;30.70;27.90;;;;;;;16.65;75.09;100149.05;219153;1245;61762;-74
2023/06/18 00:10:56;;;;;;;30.80;28.20;;;;;;;16.61;75.40;100147.01;219082;1248;61227;-75
2023/06/18 00:16:00;;;;;;;32.40;29.60;;;;;;;16.56;75.67;100150.60;219151;1245;74326;-74
2023/06/18 00:20:51;;;;;;;31.80;29.10;;;;;;;16.57;75.87;100146.56;219580;1240;61438;-74
2023/06/18 00:25:46;;;;;;;30.60;28.10;;;;;;;16.54;75.95;100150.63;220838;1231;61436;-74
2023/06/18 00:54:51;;;;;;;33.20;30.30;;;;;;;16.43;76.48;100162.52;221284;1231;74653;-74
2023/06/18 01:01:10;;;;;;;30.70;28.10;;;;;;;16.38;76.49;100159.28;221508;1232;71384;-74
2023/06/18 01:06:21;;;;;;;34.10;31.00;;;;;;;16.36;76.81;100165.44;221557;1231;61267;-74
2023/06/18 01:11:13;;;;;;;33.50;30.70;;;;;;;16.36;77.00;100166.67;221800;1231;61223;-74
2023/06/18 01:16:08;;;;;;;32.60;29.80;;;;;;;16.36;76.97;100163.17;221739;1231;61271;-74
2023/06/18 01:21:10;;;;;;;32.50;29.50;;;;;;;16.31;77.03;100161.50;221651;1231;75843;-74
2023/06/18 01:26:03;;;;;;;35.00;32.10;;;;;;;16.25;77.15;100161.60;221914;1235;71180;-74
2023/06/18 01:30:55;;;;;;;34.70;31.60;;;;;;;16.25;77.35;100165.61;221483;1231;61826;-74
2023/06/18 01:35:50;;;;;;;38.30;34.00;;;;;;;16.23;77.43;100167.55;221629;1231;61364;-74
2023/06/18 01:40:48;;;;;;;35.50;32.40;;;;;;;16.23;77.59;100169.14;221728;1231;61280;-74
2023/06/18 01:45:41;;;;;;;34.80;31.60;;;;;;;16.18;77.54;100175.15;221610;1231;75148;-74
2023/06/18 01:50:39;;;;;;;33.70;30.90;;;;;;;16.18;77.77;100174.63;221652;1235;72416;-74
2023/06/18 01:55:34;;;;;;;36.10;33.00;;;;;;;16.16;77.83;100179.04;221793;1232;61254;-74
2023/06/18 02:00:30;;;;;;;35.00;32.00;;;;;;;16.14;77.87;100179.05;221763;1232;66679;-74
2023/06/18 02:05:23;;;;;;;33.10;30.10;;;;;;;16.13;78.02;100174.35;221791;1231;61221;-74
2023/06/18 02:10:14;;;;;;;34.10;31.10;;;;;;;16.13;78.12;100177.50;221786;1231;61287;-74
2023/06/18 02:15:09;;;;;;;33.10;30.20;;;;;;;16.11;78.03;100180.33;221584;1231;61246;-74
2023/06/18 02:20:23;;;;;;;33.50;30.50;;;;;;;16.05;77.91;100180.06;221427;1235;61475;-75
2023/06/18 02:25:19;;;;;;;32.90;30.10;;;;;;;15.98;78.04;100185.21;221748;1231;67167;-74
2023/06/18 02:30:20;;;;;;;33.90;30.90;;;;;;;15.94;78.17;100187.72;221590;1231;61212;-74
2023/06/18 02:35:16;;;;;;;33.80;30.70;;;;;;;15.93;78.52;100188.44;221813;1231;73182;-74
2023/06/18 02:40:13;;;;;;;34.90;31.80;;;;;;;15.91;78.35;100195.11;221656;1231;71453;-74
2023/06/18 02:45:05;;;;;;;32.30;29.60;;;;;;;15.87;78.38;100197.25;221875;1231;61258;-74
2023/06/18 02:50:00;;;;;;;32.30;29.50;;;;;;;15.87;78.29;100196.56;221625;1231;61234;-74
2023/06/18 02:54:57;;;;;;;34.80;31.80;;;;;;;15.86;78.40;100200.77;221586;1231;154314;-74
2023/06/18 02:59:50;;;;;;;34.90;31.90;;;;;;;15.86;78.64;100205.84;221710;1231;75377;-74
2023/06/18 03:04:46;;;;;;;36.70;33.30;;;;;;;15.92;78.87;100199.29;221717;1231;61233;-74
2023/06/18 03:09:41;;;;;;;36.90;33.40;;;;;;;15.94;78.71;100199.09;221690;1231;61309;-75
2023/06/18 03:15:37;;;;;;;36.60;33.50;;;;;;;15.96;78.83;100199.77;221640;1235;67556;-76
2023/06/18 03:20:38;;;;;;;35.70;32.70;;;;;;;15.97;78.76;100206.05;221817;1231;61264;-74
2023/06/18 03:25:35;;;;;;;35.20;32.20;;;;;;;16.02;78.99;100207.04;221810;1231;61236;-74
2023/06/18 03:30:27;;;;;;;37.20;33.80;;;;;;;16.08;79.10;100203.09;221756;1231;71344;-74
2023/06/18 03:35:22;;;;;;;37.10;33.80;;;;;;;16.12;79.13;100210.73;221657;1235;61449;-74
2023/06/18 03:40:17;;;;;;;37.20;33.10;;;;;;;16.15;79.04;100212.61;221735;1231;61319;-74
2023/06/18 03:45:12;;;;;;;37.70;34.40;;;;;;;16.17;79.16;100215.20;221565;1235;61338;-74
2023/06/18 03:50:06;;;;;;;37.00;33.70;;;;;;;16.27;79.33;100218.73;221649;1231;75638;-74
2023/06/18 03:55:00;;;;;;;37.90;34.30;;;;;;;16.36;79.17;100219.13;221600;1231;72545;-74
2023/06/18 03:59:52;;;;;;;37.80;34.60;;;;;;;16.47;79.21;100219.85;221643;1231;61440;-74
2023/06/18 04:04:46;;;;;;;40.90;37.30;;;;;;;16.57;79.25;100224.58;221659;1235;67123;-74
2023/06/18 04:09:39;;;;;;;40.40;36.90;;;;;;;16.65;79.10;100224.98;221615;1231;61242;-74
2023/06/18 04:14:34;;;;;;;39.90;36.40;;;;;;;16.73;78.99;100222.59;221585;1231;61328;-74
2023/06/18 04:19:26;;;;;;;40.20;36.70;;;;;;;16.81;78.89;100225.09;221731;1231;72480;-74
2023/06/18 04:24:18;;;;;;;37.80;34.60;;;;;;;16.87;78.91;100220.83;221619;1233;61313;-74
2023/06/18 04:29:10;;;;;;;39.60;36.10;;;;;;;16.90;78.97;100230.73;221628;1231;61255;-73
2023/06/18 04:34:05;;;;;;;37.00;33.80;;;;;;;16.93;78.96;100231.58;221729;1235;61331;-74
2023/06/18 04:38:57;;;;;;;43.20;39.20;;;;;;;17.00;78.97;100235.83;221596;1231;66759;-74
2023/06/18 04:43:50;;;;;;;46.40;42.20;;;;;;;17.10;79.13;100240.73;221606;1232;61389;-74
2023/06/18 04:48:42;;;;;;;45.70;41.60;;;;;;;17.21;79.13;100243.17;221653;1231;61230;-74
2023/06/18 04:53:34;;;;;;;44.50;40.50;;;;;;;17.28;78.80;100251.98;221746;1235;61337;-75
2023/06/18 04:58:27;;;;;;;45.00;40.90;;;;;;;17.38;78.84;100254.07;221572;1231;61319;-74
2023/06/18 05:03:19;;;;;;;44.60;40.50;;;;;;;17.49;78.76;100259.11;221713;1231;61305;-74
2023/06/18 05:08:12;;;;;;;42.80;39.00;;;;;;;17.58;78.53;100259.29;221584;1231;61484;-74
2023/06/18 05:13:03;;;;;;;46.00;42.00;;;;;;;17.63;78.38;100261.66;221591;1234;61298;-74
2023/06/18 05:17:55;;;;;;;46.10;42.00;;;;;;;17.70;78.24;100265.02;221482;1235;61317;-74
2023/06/18 05:22:47;;;;;;;45.60;41.70;;;;;;;17.79;78.16;100266.94;221666;1231;66027;-74
2023/06/18 05:27:39;;;;;;;46.30;42.30;;;;;;;17.92;78.20;100270.74;221726;1231;61235;-74
2023/06/18 05:32:31;;;;;;;44.90;41.00;;;;;;;18.08;78.24;100270.95;221664;1231;61307;-74
2023/06/18 05:37:26;;;;;;;45.00;41.10;;;;;;;18.23;77.90;100272.55;221575;1231;61934;-74
2023/06/18 05:42:18;;;;;;;44.30;40.50;;;;;;;18.38;77.81;100278.39;221441;1231;61266;-74
2023/06/18 05:47:09;;;;;;;38.10;34.60;;;;;;;18.54;77.48;100279.06;221635;1231;61364;-74
2023/06/18 05:52:02;;;;;;;40.80;36.90;;;;;;;18.68;77.10;100279.11;221761;1231;74241;-73
2023/06/18 05:56:54;;;;;;;38.80;35.50;;;;;;;18.84;76.92;100275.94;221505;1231;61460;-74
2023/06/18 06:01:47;;;;;;;39.80;36.40;;;;;;;18.98;76.33;100280.34;221706;1236;61265;-74
2023/06/18 06:06:39;;;;;;;41.90;38.30;;;;;;;19.17;76.24;100284.96;221582;1236;61316;-74
2023/06/18 06:11:36;;;;;;;40.50;37.00;;;;;;;19.34;75.43;100291.20;221737;1231;61319;-74
2023/06/18 06:16:32;;;;;;;38.00;34.80;;;;;;;19.52;74.84;100298.64;221778;1231;74037;-74
2023/06/18 06:21:24;;;;;;;40.00;36.70;;;;;;;19.71;75.09;100303.75;221668;1234;61436;-74
2023/06/18 06:26:22;;;;;;;37.10;33.80;;;;;;;19.91;75.18;100306.77;221575;1231;61257;-75
2023/06/18 06:31:13;;;;;;;35.60;32.50;;;;;;;20.10;74.57;100307.99;221523;1235;65583;-74
2023/06/18 06:36:09;;;;;;;35.60;32.70;;;;;;;20.26;74.38;100311.55;221642;1236;61230;-73
2023/06/18 06:41:02;;;;;;;32.80;30.00;;;;;;;20.34;73.60;100300.95;221552;1235;74691;-73
2023/06/18 06:45:54;;;;;;;35.00;31.90;;;;;;;20.37;73.64;100309.64;221634;1231;61434;-74
2023/06/18 06:51:04;;;;;;;30.80;28.00;;;;;;;20.37;73.63;100314.21;221553;1231;61329;-73
2023/06/18 06:56:01;;;;;;;33.50;30.40;;;;;;;20.35;72.70;100318.86;221646;1231;65705;-73
2023/06/18 07:00:54;;;;;;;32.10;29.40;;;;;;;20.32;72.34;100326.16;221602;1231;61312;-73
2023/06/18 07:05:45;;;;;;;31.40;28.70;;;;;;;20.29;72.07;100330.65;221639;1232;61254;-74
2023/06/18 07:10:37;;;;;;;30.00;27.50;;;;;;;20.29;71.89;100324.15;221565;1231;61271;-75
2023/06/18 07:15:34;;;;;;;29.70;27.10;;;;;;;20.38;72.09;100324.93;221627;1236;73798;-75
2023/06/18 07:20:26;;;;;;;29.50;26.90;;;;;;;20.48;71.69;100320.42;221486;1231;73466;-75
2023/06/18 07:25:21;;;;;;;32.80;30.20;;;;;;;20.64;71.27;100319.95;221603;1231;61338;-75
2023/06/18 07:30:15;;;;;;;30.00;27.60;;;;;;;20.87;70.93;100319.05;221677;1231;65902;-75
2023/06/18 07:35:08;;;;;;;27.80;25.40;;;;;;;21.11;70.46;100317.56;221662;1231;61132;-75
2023/06/18 07:40:01;;;;;;;28.00;25.70;;;;;;;21.30;70.03;100322.75;221808;1236;74311;-75
2023/06/18 07:45:00;;;;;;;28.10;25.40;;;;;;;21.52;69.63;100325.94;222620;1228;74084;-75
2023/06/18 07:50:36;;;;;;;22.80;21.00;;;;;;;21.76;68.88;100333.38;222389;1232;61269;-75
2023/06/18 07:55:28;;;;;;;23.70;21.90;;;;;;;22.00;68.16;100334.45;222448;1228;61692;-75
2023/06/18 08:00:21;;;;;;;22.00;20.40;;;;;;;22.11;67.63;100343.58;222241;1229;61243;-75
2023/06/18 08:05:33;;;;;;;20.80;19.10;;;;;;;22.67;66.55;100335.50;222364;1228;73223;-75
2023/06/18 08:10:25;;;;;;;21.20;19.50;;;;;;;23.27;65.77;100342.30;222363;1232;61364;-74
2023/06/18 08:15:21;;;;;;;20.90;19.20;;;;;;;24.16;64.40;100346.77;222348;1232;61296;-75
2023/06/18 08:20:12;;;;;;;19.20;17.60;;;;;;;24.68;63.22;100342.96;222363;1228;61305;-74
2023/06/18 08:25:23;;;;;;;17.70;16.10;;;;;;;24.82;62.79;100345.71;222459;1228;61223;-75
2023/06/18 10:06:03;;;;;;;;;;;;;;;;;;;;;
2023/06/18 10:37:46;;;;;;;11.70;10.50;;;;;;;17.91;69.84;100423.13;218725;1248;61286;-74
2023/06/18 10:43:06;;;;;;;11.70;10.60;;;;;;;17.60;70.81;100401.21;219665;1247;67172;-74
2023/06/18 11:00:56;;;;;;;9.40;7.90;;;;;;;17.21;71.28;100399.40;220496;1238;72726;-75
2023/06/18 11:06:10;;;;;;;9.50;8.70;;;;;;;17.23;71.92;100391.66;220481;1241;61242;-74
2023/06/18 11:11:13;;;;;;;10.50;9.40;;;;;;;17.22;72.18;100393.25;221084;1234;66006;-74
2023/06/18 11:16:06;;;;;;;13.30;10.10;;;;;;;17.24;72.81;100396.00;222241;1228;61213;-75
2023/06/18 11:21:01;;;;;;;10.30;9.10;;;;;;;17.26;73.22;100401.40;222183;1228;61212;-75
2023/06/18 11:25:56;;;;;;;10.10;9.30;;;;;;;17.25;73.36;100402.64;222344;1229;73189;-74
2023/06/18 11:30:51;;;;;;;10.90;9.90;;;;;;;17.27;73.58;100402.63;222508;1229;61194;-74
2023/06/18 11:35:46;;;;;;;14.00;10.90;;;;;;;17.31;73.85;100402.38;222341;1228;67725;-74
2023/06/18 11:40:51;;;;;;;13.10;12.00;;;;;;;17.32;74.11;100401.64;222633;1229;61313;-75
2023/06/18 11:45:51;;;;;;;11.50;10.50;;;;;;;17.38;74.38;100409.98;222511;1229;73242;-75
2023/06/18 11:50:44;;;;;;;12.40;11.20;;;;;;;17.44;74.62;100411.28;222482;1232;71471;-74
2023/06/18 11:55:36;;;;;;;11.50;10.50;;;;;;;17.53;74.90;100413.77;222267;1228;61140;-74
2023/06/18 12:00:30;;;;;;;13.30;12.00;;;;;;;17.62;75.05;100412.04;222471;1228;61212;-74
2023/06/18 12:05:22;;;;;;;14.60;12.90;;;;;;;17.74;75.42;100409.54;222515;1228;61315;-74
2023/06/18 12:10:15;;;;;;;12.30;11.30;;;;;;;17.89;75.45;100412.64;222216;1228;61528;-74
2023/06/18 12:15:22;;;;;;;14.10;12.80;;;;;;;18.01;75.28;100417.35;222562;1232;61430;-74
2023/06/18 12:20:20;;;;;;;15.40;14.10;;;;;;;18.16;75.55;100413.21;222561;1228;61183;-74
2023/06/18 12:25:13;;;;;;;14.80;13.60;;;;;;;18.25;75.44;100418.48;222619;1232;66709;-73
2023/06/18 12:30:08;;;;;;;12.70;11.50;;;;;;;18.30;75.16;100418.90;222680;1228;61303;-74
2023/06/18 12:35:19;;;;;;;12.80;11.70;;;;;;;18.36;75.18;100424.23;222536;1228;74469;-74
2023/06/18 12:40:40;;;;;;;11.90;11.00;;;;;;;18.37;75.09;100417.89;222488;1232;72806;-74
2023/06/18 12:45:52;;;;;;;10.00;9.20;;;;;;;18.33;75.03;100402.86;222413;1228;61435;-74
2023/06/18 12:50:55;;;;;;;11.00;10.10;;;;;;;18.26;74.72;100395.47;222287;1228;68384;-74
2023/06/18 12:55:58;;;;;;;12.50;11.50;;;;;;;18.22;75.02;100395.02;222400;1232;61290;-75
2023/06/18 13:01:06;;;;;;;10.80;9.80;;;;;;;18.26;75.20;100383.72;222391;1228;75687;-75
2023/06/18 13:06:01;;;;;;;12.80;11.70;;;;;;;18.33;75.02;100375.34;222427;1232;71233;-75
2023/06/18 13:11:38;;;;;;;11.80;10.90;;;;;;;18.41;75.04;100374.30;222123;1232;61237;-74
2023/06/18 13:16:51;;;;;;;13.50;12.30;;;;;;;18.50;75.32;100368.66;222541;1228;67545;-74
2023/06/18 13:22:20;;;;;;;11.80;10.90;;;;;;;18.73;75.08;100352.90;222400;1229;61247;-74
2023/06/18 13:27:33;;;;;;;13.10;12.00;;;;;;;19.13;75.00;100339.16;222294;1228;75160;-74
2023/06/18 13:33:16;;;;;;;12.30;11.30;;;;;;;19.87;74.88;100334.11;222324;1229;72365;-75
2023/06/18 13:51:04;;;;;;;10.20;9.40;;;;;;;21.42;73.24;100335.05;220524;1238;61342;-75
2023/06/18 13:56:32;;;;;;;;;;;;;;;;;;;;;
2023/06/18 14:02:14;;;;;;;10.20;9.50;;;;;;;21.75;72.21;100330.26;220198;1238;70556;-75
2023/06/18 14:07:17;;;;;;;10.00;9.20;;;;;;;21.95;71.01;100316.48;220249;1238;61304;-75
2023/06/18 14:12:10;;;;;;;10.70;9.60;;;;;;;22.06;70.88;100316.92;220480;1238;67642;-75
2023/06/18 14:17:11;;;;;;;9.50;8.80;;;;;;;22.09;70.65;100318.58;220508;1241;61355;-75
2023/06/18 14:22:10;;;;;;;9.40;8.50;;;;;;;22.08;70.57;100320.76;221215;1235;76224;-74
2023/06/18 14:27:09;;;;;;;10.10;9.00;;;;;;;22.02;70.70;100326.80;221808;1228;72453;-75
2023/06/18 14:32:03;;;;;;;8.90;8.20;;;;;;;21.99;71.22;100336.80;222589;1228;61324;-75
2023/06/18 14:37:04;;;;;;;9.00;8.30;;;;;;;21.92;70.99;100336.86;222388;1228;67212;-75
2023/06/18 14:41:56;;;;;;;10.70;9.50;;;;;;;21.86;70.45;100331.09;222609;1228;61303;-75
2023/06/18 14:46:51;;;;;;;10.50;9.70;;;;;;;21.89;70.40;100328.66;222323;1229;75099;-75
2023/06/18 14:51:46;;;;;;;10.10;9.20;;;;;;;21.92;68.86;100328.41;222442;1228;159644;-76
2023/06/18 14:56:41;;;;;;;10.10;9.40;;;;;;;21.90;68.33;100326.00;222438;1228;61222;-75
2023/06/18 15:01:32;;;;;;;10.50;9.70;;;;;;;21.85;68.43;100326.00;222581;1232;67887;-74
2023/06/18 15:06:32;;;;;;;10.70;9.80;;;;;;;21.70;68.11;100324.05;222668;1228;61563;-75
2023/06/18 15:11:27;;;;;;;10.10;9.20;;;;;;;21.58;68.50;100324.13;222382;1228;75276;-74
2023/06/18 15:16:19;;;;;;;11.40;10.60;;;;;;;21.50;68.54;100320.16;222725;1232;72001;-74
2023/06/18 15:21:16;;;;;;;11.80;10.80;;;;;;;21.48;68.80;100317.60;222582;1228;61245;-75
2023/06/18 15:26:11;;;;;;;12.10;11.20;;;;;;;21.50;68.92;100320.71;222613;1228;61286;-74
2023/06/18 15:31:03;;;;;;;11.90;11.00;;;;;;;21.60;69.64;100337.64;222565;1228;61303;-74
2023/06/18 15:35:54;;;;;;;12.60;11.70;;;;;;;21.69;70.05;100347.75;222579;1229;61251;-74
2023/06/18 15:40:46;;;;;;;12.80;11.50;;;;;;;22.15;69.10;100347.33;222665;1228;61317;-75
2023/06/18 15:45:38;;;;;;;11.20;10.20;;;;;;;22.71;68.39;100338.16;222578;1228;75159;-74
2023/06/18 15:50:44;;;;;;;11.30;10.20;;;;;;;23.03;66.77;100326.99;222304;1232;61207;-74
2023/06/18 15:55:41;;;;;;;10.50;9.70;;;;;;;23.18;66.44;100332.78;222605;1228;61236;-74
2023/06/18 16:00:40;;;;;;;11.50;10.50;;;;;;;23.23;66.23;100338.07;222664;1228;65900;-74
2023/06/18 16:05:38;;;;;;;11.90;10.90;;;;;;;22.84;65.63;100339.40;222687;1232;61238;-75
2023/06/18 16:10:47;;;;;;;11.50;10.40;;;;;;;22.52;65.72;100347.39;222377;1232;74849;-74
2023/06/18 16:16:08;;;;;;;12.20;11.20;;;;;;;22.50;65.86;100350.64;222215;1230;73059;-74
2023/06/18 16:21:07;;;;;;;11.40;10.30;;;;;;;22.34;65.82;100354.77;222172;1228;61245;-75
2023/06/18 16:26:08;;;;;;;11.50;10.50;;;;;;;21.94;66.48;100348.96;222303;1232;67189;-74
2023/06/18 16:31:32;;;;;;;13.10;11.70;;;;;;;21.53;67.83;100354.98;222334;1228;61203;-75
2023/06/18 16:36:39;;;;;;;13.00;12.00;;;;;;;21.14;68.46;100362.23;222253;1228;74694;-75
2023/06/18 16:41:47;;;;;;;13.80;12.50;;;;;;;20.82;69.63;100369.41;222024;1228;73589;-75
2023/06/18 16:46:52;;;;;;;15.40;14.10;;;;;;;20.55;70.55;100388.70;222222;1228;61245;-75
2023/06/18 16:51:57;;;;;;;15.70;14.50;;;;;;;20.28;71.04;100388.92;222240;1228;67273;-75
2023/06/18 16:57:16;;;;;;;13.30;12.20;;;;;;;20.11;71.95;100391.70;222272;1232;61269;-75
2023/06/18 17:02:43;;;;;;;;;;;;;;;;;;;;;
2023/06/18 17:08:03;;;;;;;15.50;14.10;;;;;;;19.90;73.41;100405.81;222409;1232;73626;-75
2023/06/18 17:13:18;;;;;;;16.70;15.40;;;;;;;19.88;73.88;100414.82;222542;1228;61347;-74
2023/06/18 17:29:03;;;;;;;17.90;16.50;;;;;;;19.73;74.98;100401.48;222272;1228;74546;-75
2023/06/18 17:39:47;;;;;;;18.60;16.90;;;;;;;19.59;75.37;100412.55;222337;1228;61360;-75
2023/06/18 17:44:43;;;;;;;19.90;17.90;;;;;;;19.52;75.73;100410.44;222532;1232;67812;-75
2023/06/18 17:49:37;;;;;;;19.30;17.40;;;;;;;19.45;76.00;100408.33;222574;1228;61245;-75
2023/06/18 17:54:33;;;;;;;19.50;17.80;;;;;;;19.36;76.28;100398.16;222298;1228;74476;-75
2023/06/18 17:59:45;;;;;;;20.40;18.20;;;;;;;19.31;76.52;100393.72;222477;1228;72906;-74
2023/06/18 18:04:54;;;;;;;19.90;18.00;;;;;;;19.27;76.83;100386.45;222374;1228;61326;-75
2023/06/18 18:09:59;;;;;;;21.90;19.80;;;;;;;19.20;76.90;100385.55;222268;1228;66662;-75
2023/06/18 18:15:06;;;;;;;21.30;19.20;;;;;;;19.13;76.96;100391.02;222543;1228;61335;-75
2023/06/18 18:20:14;;;;;;;20.10;18.30;;;;;;;19.08;77.15;100399.73;222549;1228;72261;-75
2023/06/18 18:25:16;;;;;;;20.10;18.40;;;;;;;19.04;77.23;100409.83;222309;1228;72973;-75
2023/06/18 18:30:27;;;;;;;20.30;18.50;;;;;;;18.98;77.12;100414.69;222347;1231;61321;-77
2023/06/18 18:35:41;;;;;;;18.10;16.60;;;;;;;18.90;77.34;100419.09;222492;1228;67230;-75
2023/06/18 18:40:45;;;;;;;19.70;17.30;;;;;;;18.82;77.57;100421.71;223399;1229;61284;-75
2023/06/18 18:45:44;;;;;;;21.00;19.00;;;;;;;18.73;77.76;100422.23;222346;1228;74503;-75
2023/06/18 18:50:50;;;;;;;;;;;;;;;18.62;77.95;100423.52;222603;1228;73365;-74
2023/06/18 18:55:50;;;;;;;17.90;16.40;;;;;;;18.51;78.20;100427.44;222558;1228;61271;-75
2023/06/18 19:00:51;;;;;;;19.80;17.80;;;;;;;18.42;78.24;100419.73;222548;1228;67511;-75
2023/06/18 19:06:02;;;;;;;20.90;18.90;;;;;;;18.32;78.32;100419.40;222518;1228;61289;-74
2023/06/18 19:11:38;;;;;;;19.10;17.30;;;;;;;18.18;78.60;100420.72;222558;1228;75003;-75
2023/06/18 19:16:49;;;;;;;19.70;17.80;;;;;;;18.00;78.50;100413.15;222162;1228;73205;-75
2023/06/18 19:21:57;;;;;;;19.00;17.40;;;;;;;17.87;78.78;100411.98;222297;1228;61217;-75
2023/06/18 19:27:05;;;;;;;18.50;16.90;;;;;;;17.76;78.85;100410.41;222542;1228;68521;-74
2023/06/18 19:32:32;;;;;;;20.30;18.50;;;;;;;17.61;79.06;100407.49;222480;1228;61357;-75
2023/06/18 19:43:43;;;;;;;18.80;17.20;;;;;;;17.39;79.29;100415.23;220722;1237;73923;-75
2023/06/18 19:48:58;;;;;;;17.90;16.30;;;;;;;17.28;79.37;100402.77;220965;1237;61494;-75
2023/06/18 19:53:59;;;;;;;18.20;16.30;;;;;;;17.21;79.37;100409.02;220938;1237;66760;-75
2023/06/18 19:59:04;;;;;;;18.60;16.90;;;;;;;17.08;79.27;100410.26;220827;1235;61473;-75
2023/06/18 20:04:48;;;;;;;18.50;16.80;;;;;;;16.93;79.32;100409.60;220772;1239;73512;-75
2023/06/18 20:10:05;;;;;;;19.40;17.70;;;;;;;16.81;79.47;100424.80;220691;1239;73874;-75
2023/06/18 20:15:22;;;;;;;18.90;15.10;;;;;;;16.72;79.43;100427.34;220840;1237;61652;-75
2023/06/18 20:20:41;;;;;;;19.30;17.50;;;;;;;16.66;79.57;100428.83;222113;1228;65800;-74
2023/06/18 20:32:35;;;;;;;;;;;;;;;16.52;79.79;100450.00;221110;1234;73788;-76
2023/06/18 20:38:06;;;;;;;16.60;15.00;;;;;;;16.45;79.99;100455.51;220930;1233;70701;-75
2023/06/18 20:43:46;;;;;;;16.70;15.10;;;;;;;16.39;80.08;100450.85;220964;1234;61316;-76
2023/06/18 20:49:14;;;;;;;17.20;15.50;;;;;;;16.29;79.77;100456.89;221507;1234;66107;-75
2023/06/18 20:54:37;;;;;;;20.50;17.20;;;;;;;16.21;79.89;100454.02;221136;1235;61682;-75
2023/06/18 21:00:00;;;;;;;16.70;15.20;;;;;;;16.15;79.85;100460.19;221208;1234;75402;-77
2023/06/18 21:23:50;;;;;;;17.70;15.90;;;;;;;15.86;80.18;100459.59;222525;1228;61265;-75
2023/06/18 21:28:45;;;;;;;17.30;15.50;;;;;;;15.80;80.28;100458.08;222679;1228;73597;-75
2023/06/18 21:33:37;;;;;;;18.80;17.00;;;;;;;15.75;80.48;100457.06;222550;1228;61231;-75
2023/06/18 21:38:35;;;;;;;16.40;14.90;;;;;;;15.74;80.66;100456.70;222707;1228;61655;-75
2023/06/18 21:44:01;;;;;;;;;;;;;;;;;;;;;
2023/06/18 21:49:29;;;;;;;17.00;15.20;;;;;;;15.57;80.33;100463.64;221516;1228;61227;-76
2023/06/18 22:13:01;;;;;;;15.60;14.20;;;;;;;15.39;80.30;100470.92;225236;1228;66526;-77
2023/06/18 22:19:11;;;;;;;15.40;14.00;;;;;;;15.34;80.25;100476.38;222862;1228;61363;-76
2023/06/18 22:25:03;;;;;;;15.60;14.10;;;;;;;15.19;80.13;100474.54;221080;1235;75230;-76
2023/06/18 22:42:58;;;;;;;;;;;;;;;;;;;;;
2023/06/18 22:48:29;;;;;;;15.20;13.80;;;;;;;14.98;80.74;100473.09;221211;1239;61530;-76
2023/06/18 22:54:04;;;;;;;15.00;13.60;;;;;;;14.92;80.73;100471.55;220925;1239;73641;-76
2023/06/18 22:59:34;;;;;;;16.40;15.00;;;;;;;14.83;80.67;100468.80;221964;1228;72657;-76
2023/06/18 23:05:13;;;;;;;14.10;12.80;;;;;;;14.76;80.63;100462.73;222625;1228;61249;-76
2023/06/18 23:11:37;;;;;;;14.00;12.70;;;;;;;14.66;80.45;100463.98;222467;1228;67765;-76
2023/06/18 23:16:44;;;;;;;15.60;14.10;;;;;;;14.56;80.48;100463.99;222540;1228;61245;-76
2023/06/18 23:28:48;;;;;;;;;;;;;;;;;;;;;
2023/06/18 23:40:38;;;;;;;14.30;12.90;;;;;;;14.27;80.91;100472.09;222838;1229;65771;-76
2023/06/18 23:51:56;;;;;;;13.40;12.10;;;;;;;14.16;80.78;100468.45;222704;1228;73826;-76
2023/06/18 23:57:47;;;;;;;13.40;12.20;;;;;;;14.12;81.06;100473.34;222569;1228;71054;-76
